KHLB/HLB METAR and TAF weather

Enter ICAO airport designator
Station Type Date Time Source
KHLB METAR 2019/06/20 07:00 UTC NOAA

KHLB 200700Z AUTO 00000KT 7SM OVC007 20/20 A2961 RMK A01


Station Type Date Time Source
KHLB Decoded METAR 2019/06/20 07:00 UTC NOAA

Station name not available
Jun 20, 2019 - 03:00 AM EDT / 2019.06.20 0700 UTC
Wind: Calm:0
Visibility: 7 mile(s):0
Sky conditions: overcast
Temperature: 68 F (20 C)
Dew Point: 68 F (20 C)
Relative Humidity: 100%
Pressure (altimeter): 29.61 in. Hg (1002 hPa)
ob: KHLB 200700Z AUTO 00000KT 7SM OVC007 20/20 A2961 RMK A01
cycle: 7

Station Type Date Time Source
KHLB TAF UTC NOAA

Error!

Example: see airport list